createdAt,value
2023-02-24T00:00:38.558Z,100.00
2023-02-24T00:03:11.728Z,100.00
2023-02-24T00:05:44.377Z,100.00
2023-02-24T00:08:13.961Z,100.00
2023-02-24T00:10:41.827Z,100.00
2023-02-24T00:13:12.242Z,100.00
2023-02-24T00:15:40.688Z,100.00
2023-02-24T00:18:08.541Z,100.00
2023-02-24T00:20:37.398Z,100.00
2023-02-24T00:23:05.440Z,100.00
2023-02-24T00:25:34.645Z,100.00
2023-02-24T00:28:02.604Z,100.00
2023-02-24T00:30:33.236Z,100.00
2023-02-24T00:33:02.937Z,100.00
2023-02-24T00:35:30.852Z,100.00
2023-02-24T00:37:58.800Z,100.00
2023-02-24T00:40:26.848Z,100.00
2023-02-24T00:42:56.178Z,100.00
2023-02-24T00:45:24.061Z,100.00
2023-02-24T00:47:51.960Z,100.00
2023-02-24T00:50:20.229Z,100.00
2023-02-24T00:52:49.819Z,100.00
2023-02-24T00:55:19.277Z,100.00
2023-02-24T00:57:47.236Z,100.00
2023-02-24T01:00:20.029Z,100.00
2023-02-24T01:02:47.963Z,100.00
2023-02-24T01:05:16.115Z,100.00
2023-02-24T01:07:44.154Z,100.00
2023-02-24T01:10:13.077Z,100.00
2023-02-24T01:12:49.812Z,100.00
2023-02-24T01:15:21.779Z,100.00
2023-02-24T01:17:49.706Z,100.00
2023-02-24T01:20:18.576Z,100.00
2023-02-24T01:22:48.140Z,100.00
2023-02-24T01:25:16.245Z,100.00
2023-02-24T01:27:44.179Z,100.00
2023-02-24T01:30:16.125Z,100.00
2023-02-24T01:32:46.968Z,100.00
2023-02-24T01:35:15.872Z,100.00
2023-02-24T01:37:45.488Z,100.00
2023-02-24T01:40:21.573Z,100.00
2023-02-24T01:42:50.485Z,100.00
2023-02-24T01:45:25.501Z,100.00
2023-02-24T01:48:01.319Z,100.00
2023-02-24T01:50:30.004Z,100.00
2023-02-24T01:53:02.313Z,100.00
2023-02-24T01:55:34.554Z,100.00
2023-02-24T01:58:06.668Z,100.00
2023-02-24T02:00:45.559Z,100.00
2023-02-24T02:03:30.852Z,100.00
2023-02-24T02:06:02.420Z,100.00
2023-02-24T02:08:31.194Z,100.00
2023-02-24T02:11:04.383Z,100.00
2023-02-24T02:13:35.867Z,100.00
2023-02-24T02:16:33.648Z,100.00
2023-02-24T02:19:24.990Z,100.00
2023-02-24T02:22:08.441Z,100.00
2023-02-24T02:24:49.495Z,100.00
2023-02-24T02:27:58.203Z,100.00
2023-02-24T02:30:55.507Z,100.00
2023-02-24T02:34:09.427Z,100.00
2023-02-24T02:36:48.989Z,100.00
2023-02-24T02:39:29.084Z,100.00
2023-02-24T02:42:04.928Z,100.00
2023-02-24T02:44:40.016Z,100.00
2023-02-24T02:47:14.245Z,100.00
2023-02-24T02:49:46.724Z,100.00
2023-02-24T02:52:22.206Z,100.00
2023-02-24T02:54:54.164Z,100.00
2023-02-24T02:57:26.264Z,100.00
2023-02-24T03:00:00.255Z,100.00
2023-02-24T03:02:40.036Z,100.00
2023-02-24T03:05:11.548Z,100.00
2023-02-24T03:07:42.937Z,100.00
2023-02-24T03:10:20.951Z,100.00
2023-02-24T03:12:52.910Z,100.00
2023-02-24T03:15:24.545Z,100.00
2023-02-24T03:17:57.106Z,100.00
2023-02-24T03:20:32.861Z,100.00
2023-02-24T03:23:05.010Z,100.00
2023-02-24T03:25:44.642Z,100.00
2023-02-24T03:28:17.618Z,100.00
2023-02-24T03:30:49.164Z,100.00
2023-02-24T03:33:24.246Z,100.00
2023-02-24T03:35:54.071Z,100.00
2023-02-24T03:38:24.499Z,100.00
2023-02-24T03:40:53.463Z,100.00
2023-02-24T03:43:26.862Z,100.00
2023-02-24T03:45:56.380Z,100.00
2023-02-24T03:48:26.135Z,100.00
2023-02-24T03:50:56.393Z,100.00
2023-02-24T03:53:39.422Z,100.00
2023-02-24T03:56:22.796Z,100.00
2023-02-24T03:59:05.877Z,100.00
2023-02-24T04:01:43.250Z,100.00
2023-02-24T04:04:19.222Z,100.00
2023-02-24T04:06:56.515Z,100.00
2023-02-24T04:09:33.359Z,100.00
2023-02-24T04:12:10.395Z,100.00
2023-02-24T04:14:48.700Z,100.00
2023-02-24T04:17:21.233Z,100.00
2023-02-24T04:19:54.319Z,100.00
2023-02-24T04:22:25.870Z,100.00
2023-02-24T04:24:58.204Z,100.00
2023-02-24T04:27:28.452Z,100.00
2023-02-24T04:30:01.155Z,100.00
2023-02-24T04:32:31.628Z,100.00
2023-02-24T04:35:04.574Z,100.00
2023-02-24T04:37:37.363Z,100.00
2023-02-24T04:40:10.691Z,100.00
2023-02-24T04:42:41.317Z,100.00
2023-02-24T04:45:12.963Z,100.00
2023-02-24T04:47:43.124Z,100.00
2023-02-24T04:50:12.344Z,100.00
2023-02-24T04:52:45.020Z,100.00
2023-02-24T04:55:12.940Z,100.00
2023-02-24T04:57:40.855Z,100.00
2023-02-24T05:00:21.176Z,100.00
2023-02-24T05:02:49.783Z,100.00
2023-02-24T05:05:18.552Z,100.00
2023-02-24T05:07:48.518Z,100.00
2023-02-24T05:10:18.902Z,100.00
2023-02-24T05:12:46.868Z,100.00
2023-02-24T05:15:15.014Z,100.00
2023-02-24T05:17:43.151Z,100.00
2023-02-24T05:20:29.712Z,100.00
2023-02-24T05:22:58.963Z,100.00
2023-02-24T05:25:26.943Z,100.00
2023-02-24T05:27:56.891Z,100.00
2023-02-24T05:30:25.100Z,99.94
2023-02-24T05:32:54.272Z,100.00
2023-02-24T05:35:22.237Z,100.00
2023-02-24T05:37:50.069Z,100.00
2023-02-24T05:40:23.544Z,100.00
2023-02-24T05:42:51.926Z,100.00
2023-02-24T05:45:19.890Z,100.00
2023-02-24T05:47:48.564Z,100.00
2023-02-24T05:50:17.683Z,100.00
2023-02-24T05:52:45.861Z,99.73
2023-02-24T05:55:14.211Z,99.77
2023-02-24T05:57:43.858Z,99.92
2023-02-24T06:00:16.359Z,99.87
2023-02-24T06:02:49.630Z,99.46
2023-02-24T06:05:26.569Z,99.37
2023-02-24T06:08:04.388Z,99.19
2023-02-24T06:10:34.812Z,99.03
2023-02-24T06:13:04.330Z,98.83
2023-02-24T06:15:32.416Z,98.89
2023-02-24T06:18:02.113Z,98.35
2023-02-24T06:20:33.097Z,98.51
2023-02-24T06:23:02.342Z,98.38
2023-02-24T06:25:33.386Z,97.97
2023-02-24T06:28:01.903Z,97.71
2023-02-24T06:30:32.923Z,97.93
2023-02-24T06:33:00.867Z,97.66
2023-02-24T06:35:28.713Z,97.78
2023-02-24T06:37:56.958Z,97.93
2023-02-24T06:40:24.879Z,97.29
2023-02-24T06:42:55.074Z,97.52
2023-02-24T06:45:24.322Z,97.63
2023-02-24T06:47:53.796Z,97.33
2023-02-24T06:50:21.903Z,97.52
2023-02-24T06:52:50.897Z,97.78
2023-02-24T06:55:26.329Z,97.85
2023-02-24T06:57:58.051Z,97.17
2023-02-24T07:00:37.357Z,97.52
2023-02-24T07:03:15.813Z,97.30
2023-02-24T07:05:50.404Z,97.43
2023-02-24T07:08:21.181Z,97.37
2023-02-24T07:10:54.509Z,97.14
2023-02-24T07:13:22.801Z,97.35
2023-02-24T07:15:51.146Z,96.94
2023-02-24T07:18:20.743Z,97.29
2023-02-24T07:20:48.650Z,97.20
2023-02-24T07:23:17.782Z,97.29
2023-02-24T07:25:46.981Z,96.97
2023-02-24T07:28:16.554Z,97.22
2023-02-24T07:30:44.430Z,97.32
2023-02-24T07:33:14.471Z,97.42
2023-02-24T07:35:44.066Z,97.33
2023-02-24T07:38:17.234Z,97.76
2023-02-24T07:40:47.642Z,97.73
2023-02-24T07:43:16.022Z,97.19
2023-02-24T07:45:43.985Z,97.54
2023-02-24T07:48:12.579Z,97.67
2023-02-24T07:50:43.615Z,97.70
2023-02-24T07:53:11.565Z,97.79
2023-02-24T07:55:40.507Z,97.43
2023-02-24T07:58:10.788Z,97.37
2023-02-24T08:00:58.826Z,98.22
2023-02-24T08:03:30.497Z,97.98
2023-02-24T08:06:13.089Z,98.22
2023-02-24T08:08:57.879Z,98.23
2023-02-24T08:11:27.871Z,97.52
2023-02-24T08:13:57.938Z,97.26
2023-02-24T08:16:34.616Z,97.60
2023-02-24T08:19:03.525Z,97.67
2023-02-24T08:21:38.337Z,96.86
2023-02-24T08:24:06.996Z,96.72
2023-02-24T08:26:44.882Z,96.87
2023-02-24T08:29:13.683Z,96.69
2023-02-24T08:31:43.210Z,96.68
2023-02-24T08:34:11.345Z,97.07
2023-02-24T08:36:40.637Z,96.90
2023-02-24T08:39:08.453Z,96.33
2023-02-24T08:41:51.616Z,96.33
2023-02-24T08:44:20.498Z,96.47
2023-02-24T08:46:50.366Z,96.31
2023-02-24T08:49:19.189Z,96.32
2023-02-24T08:51:52.980Z,96.17
2023-02-24T08:54:27.567Z,95.61
2023-02-24T08:56:56.989Z,95.66
2023-02-24T08:59:40.487Z,95.30
2023-02-24T09:02:31.209Z,95.59
2023-02-24T09:05:03.650Z,95.77
2023-02-24T09:07:36.673Z,95.50
2023-02-24T09:10:11.695Z,95.22
2023-02-24T09:12:41.345Z,95.74
2023-02-24T09:15:11.551Z,96.06
2023-02-24T09:17:50.422Z,95.60
2023-02-24T09:20:51.965Z,95.38
2023-02-24T09:23:21.320Z,95.61
2023-02-24T09:25:54.430Z,95.65
2023-02-24T09:28:25.155Z,94.97
2023-02-24T09:30:54.504Z,95.92
2023-02-24T09:33:25.587Z,95.53
2023-02-24T09:36:03.301Z,95.72
2023-02-24T09:38:50.312Z,95.12
2023-02-24T09:41:32.243Z,95.75
2023-02-24T09:44:07.921Z,95.02
2023-02-24T09:46:54.170Z,94.49
2023-02-24T09:49:25.326Z,95.25
2023-02-24T09:52:00.621Z,94.14
2023-02-24T09:54:35.416Z,94.17
2023-02-24T09:57:16.894Z,94.01
2023-02-24T10:00:22.173Z,94.02
2023-02-24T10:03:03.937Z,93.68
2023-02-24T10:05:39.487Z,93.24
2023-02-24T10:08:18.123Z,93.72
2023-02-24T10:11:07.131Z,93.68
2023-02-24T10:13:38.907Z,92.84
2023-02-24T10:16:15.668Z,93.10
2023-02-24T10:18:48.577Z,92.31
2023-02-24T10:21:30.889Z,92.53
2023-02-24T10:24:15.505Z,92.39
2023-02-24T10:27:00.877Z,92.27
2023-02-24T10:30:01.158Z,92.08
2023-02-24T10:32:42.339Z,91.97
2023-02-24T10:35:17.643Z,91.46
2023-02-24T10:37:45.925Z,91.63
2023-02-24T10:40:26.430Z,92.00
2023-02-24T10:43:10.675Z,91.47
2023-02-24T10:45:45.436Z,91.78
2023-02-24T10:48:41.524Z,91.55
2023-02-24T10:51:19.985Z,92.02
2023-02-24T10:54:10.144Z,91.55
2023-02-24T10:56:44.549Z,91.73
2023-02-24T10:59:42.021Z,91.93
2023-02-24T11:02:29.578Z,91.41
2023-02-24T11:05:17.019Z,91.46
2023-02-24T11:07:53.626Z,91.64
2023-02-24T11:10:32.548Z,90.89
2023-02-24T11:13:19.542Z,90.62
2023-02-24T11:16:09.622Z,90.92
2023-02-24T11:18:39.248Z,91.46
2023-02-24T11:21:09.983Z,91.25
2023-02-24T11:23:42.307Z,90.64
2023-02-24T11:26:16.912Z,90.95
2023-02-24T11:29:00.863Z,90.86
2023-02-24T11:31:41.528Z,90.64
2023-02-24T11:34:17.042Z,90.11
2023-02-24T11:36:54.621Z,89.99
2023-02-24T11:39:42.348Z,90.20
2023-02-24T11:42:14.773Z,89.65
2023-02-24T11:44:51.962Z,89.33
2023-02-24T11:47:27.355Z,88.95
2023-02-24T11:50:04.749Z,89.23
2023-02-24T11:52:36.905Z,88.51
2023-02-24T11:55:14.814Z,88.41
2023-02-24T11:57:45.715Z,88.38
2023-02-24T12:00:20.439Z,87.72
2023-02-24T12:02:56.170Z,87.17
2023-02-24T12:05:28.528Z,87.00
2023-02-24T12:08:02.923Z,87.34
2023-02-24T12:10:34.645Z,86.96
2023-02-24T12:13:14.098Z,86.70
2023-02-24T12:15:47.078Z,86.82
2023-02-24T12:18:21.147Z,86.55
2023-02-24T12:20:51.974Z,86.43
2023-02-24T12:23:24.954Z,86.31
2023-02-24T12:26:06.979Z,86.15
2023-02-24T12:28:51.300Z,85.97
2023-02-24T12:31:27.466Z,85.77
2023-02-24T12:34:08.691Z,85.45
2023-02-24T12:36:54.393Z,86.02
2023-02-24T12:39:23.611Z,86.12
2023-02-24T12:42:02.155Z,85.43
2023-02-24T12:44:42.826Z,85.68
2023-02-24T12:47:14.102Z,85.58
2023-02-24T12:49:59.519Z,84.78
2023-02-24T12:52:35.057Z,85.16
2023-02-24T12:55:11.516Z,84.91
2023-02-24T12:57:49.318Z,85.15
2023-02-24T13:00:26.104Z,85.52
2023-02-24T13:03:02.795Z,85.08
2023-02-24T13:05:38.033Z,84.83
2023-02-24T13:08:19.586Z,85.73
2023-02-24T13:10:51.922Z,85.36
2023-02-24T13:13:26.579Z,85.41
2023-02-24T13:15:56.232Z,84.97
2023-02-24T13:18:30.193Z,85.01
2023-02-24T13:21:08.427Z,85.03
2023-02-24T13:23:38.008Z,85.23
2023-02-24T13:26:06.086Z,85.60
2023-02-24T13:28:38.629Z,85.40
2023-02-24T13:31:09.709Z,85.26
2023-02-24T13:33:39.680Z,85.83
2023-02-24T13:36:15.805Z,85.51
2023-02-24T13:38:45.821Z,85.94
2023-02-24T13:41:38.356Z,85.91
2023-02-24T13:44:28.256Z,85.92
2023-02-24T13:47:40.709Z,86.18
2023-02-24T13:50:33.692Z,85.89
2023-02-24T13:53:25.752Z,86.06
2023-02-24T13:56:09.960Z,86.64
2023-02-24T13:59:13.274Z,86.14
2023-02-24T14:01:50.796Z,86.09
2023-02-24T14:04:24.464Z,86.29
2023-02-24T14:06:55.008Z,86.45
2023-02-24T14:09:28.053Z,86.56
2023-02-24T14:12:01.034Z,86.89
2023-02-24T14:14:30.486Z,86.71
2023-02-24T14:16:58.527Z,86.66
2023-02-24T14:19:27.517Z,86.75
2023-02-24T14:21:57.575Z,86.93
2023-02-24T14:24:29.303Z,86.89
2023-02-24T14:26:59.774Z,87.30
2023-02-24T14:29:32.162Z,87.24
2023-02-24T14:32:01.417Z,87.64
2023-02-24T14:34:34.037Z,87.52
2023-02-24T14:37:04.798Z,87.57
2023-02-24T14:39:35.336Z,87.06
2023-02-24T14:42:13.514Z,86.80
2023-02-24T14:44:44.070Z,87.58
2023-02-24T14:47:15.345Z,87.49
2023-02-24T14:49:52.532Z,86.57
2023-02-24T14:52:31.585Z,87.07
2023-02-24T14:55:07.317Z,87.28
2023-02-24T14:57:39.372Z,87.13
2023-02-24T15:00:11.968Z,86.73
2023-02-24T15:02:44.970Z,86.80
2023-02-24T15:05:13.380Z,86.97
2023-02-24T15:07:45.453Z,87.08
2023-02-24T15:10:22.735Z,86.40
2023-02-24T15:12:54.831Z,86.40
2023-02-24T15:15:24.968Z,86.35
2023-02-24T15:17:57.849Z,86.23
2023-02-24T15:20:28.423Z,86.32
2023-02-24T15:22:56.845Z,86.75
2023-02-24T15:25:41.841Z,86.08
2023-02-24T15:28:24.445Z,86.74
2023-02-24T15:31:05.820Z,85.98
2023-02-24T15:33:40.246Z,85.89
2023-02-24T15:36:12.624Z,86.16
2023-02-24T15:38:43.352Z,86.45
2023-02-24T15:41:15.056Z,86.07
2023-02-24T15:43:50.252Z,85.94
2023-02-24T15:46:25.666Z,85.88
2023-02-24T15:48:55.655Z,85.89
2023-02-24T15:51:32.012Z,85.75
2023-02-24T15:54:02.375Z,85.47
2023-02-24T15:56:34.086Z,86.05
2023-02-24T15:59:02.666Z,85.75
2023-02-24T16:01:32.796Z,85.30
2023-02-24T16:04:01.601Z,85.79
2023-02-24T16:06:30.323Z,85.51
2023-02-24T16:08:59.335Z,85.99
2023-02-24T16:11:30.201Z,85.86
2023-02-24T16:14:01.818Z,85.75
2023-02-24T16:16:30.025Z,85.62
2023-02-24T16:18:57.959Z,85.74
2023-02-24T16:21:26.097Z,85.80
2023-02-24T16:23:53.969Z,85.97
2023-02-24T16:26:24.148Z,85.96
2023-02-24T16:28:55.350Z,85.73
2023-02-24T16:31:26.309Z,86.24
2023-02-24T16:33:56.069Z,85.87
2023-02-24T16:36:25.551Z,86.52
2023-02-24T16:38:53.716Z,86.16
2023-02-24T16:41:21.900Z,85.95
2023-02-24T16:43:49.962Z,85.90
2023-02-24T16:46:20.347Z,86.05
2023-02-24T16:48:53.599Z,86.05
2023-02-24T16:51:22.843Z,85.59
2023-02-24T16:53:50.807Z,85.51
2023-02-24T16:56:18.804Z,85.47
2023-02-24T16:58:46.748Z,85.90
2023-02-24T17:01:20.429Z,86.12
2023-02-24T17:03:51.835Z,85.20
2023-02-24T17:06:22.107Z,85.52
2023-02-24T17:08:50.677Z,85.29
2023-02-24T17:11:21.955Z,85.61
2023-02-24T17:13:50.075Z,85.55
2023-02-24T17:16:18.006Z,85.21
2023-02-24T17:18:45.866Z,85.21
2023-02-24T17:21:16.163Z,85.26
2023-02-24T17:23:44.166Z,85.41
2023-02-24T17:26:15.060Z,84.97
2023-02-24T17:28:43.465Z,85.32
2023-02-24T17:31:11.485Z,84.93
2023-02-24T17:33:39.815Z,85.11
2023-02-24T17:36:07.898Z,85.36
2023-02-24T17:38:37.276Z,85.16
2023-02-24T17:41:05.416Z,85.38
2023-02-24T17:43:33.238Z,85.35
2023-02-24T17:46:06.491Z,85.09
2023-02-24T17:48:35.055Z,85.20
2023-02-24T17:51:02.863Z,85.96
2023-02-24T17:53:31.303Z,85.69
2023-02-24T17:56:04.820Z,85.91
2023-02-24T17:58:33.756Z,85.42
2023-02-24T18:01:02.725Z,85.92
2023-02-24T18:03:30.809Z,85.88
2023-02-24T18:06:00.502Z,86.44
2023-02-24T18:08:28.574Z,86.44
2023-02-24T18:10:56.654Z,86.62
2023-02-24T18:13:26.312Z,86.49
2023-02-24T18:15:54.291Z,86.59
2023-02-24T18:18:22.231Z,87.22
2023-02-24T18:20:50.156Z,87.23
2023-02-24T18:23:18.079Z,87.32
2023-02-24T18:25:46.165Z,87.44
2023-02-24T18:28:14.028Z,87.33
2023-02-24T18:30:43.347Z,87.35
2023-02-24T18:33:11.531Z,87.39
2023-02-24T18:35:40.110Z,87.23
2023-02-24T18:38:08.086Z,87.70
2023-02-24T18:40:36.047Z,87.61
2023-02-24T18:43:03.948Z,87.13
2023-02-24T18:45:32.760Z,87.18
2023-02-24T18:48:05.140Z,87.10
2023-02-24T18:50:34.290Z,87.02
2023-02-24T18:53:02.396Z,87.42
2023-02-24T18:55:30.326Z,87.68
2023-02-24T18:57:58.152Z,87.04
2023-02-24T19:00:26.291Z,87.12
2023-02-24T19:02:54.264Z,87.26
2023-02-24T19:05:24.941Z,87.20
2023-02-24T19:07:53.943Z,87.75
2023-02-24T19:10:21.846Z,87.44
2023-02-24T19:12:51.086Z,87.09
2023-02-24T19:15:20.034Z,87.73
2023-02-24T19:17:48.037Z,87.63
2023-02-24T19:20:16.010Z,87.15
2023-02-24T19:22:45.434Z,87.42
2023-02-24T19:25:13.704Z,87.43
2023-02-24T19:27:41.528Z,87.92
2023-02-24T19:30:10.785Z,87.85
2023-02-24T19:32:38.762Z,87.45
2023-02-24T19:35:07.711Z,87.97
2023-02-24T19:37:36.193Z,87.91
2023-02-24T19:40:05.896Z,87.64
2023-02-24T19:42:33.794Z,87.51
2023-02-24T19:45:01.764Z,87.61
2023-02-24T19:47:29.703Z,87.75
2023-02-24T19:49:57.519Z,87.82
2023-02-24T19:52:25.814Z,87.58
2023-02-24T19:54:54.430Z,87.01
2023-02-24T19:57:23.609Z,87.13
2023-02-24T19:59:52.502Z,87.36
2023-02-24T20:02:20.536Z,87.27
2023-02-24T20:04:48.424Z,87.30
2023-02-24T20:07:16.509Z,87.22
2023-02-24T20:09:44.628Z,86.78
2023-02-24T20:12:12.560Z,86.73
2023-02-24T20:14:41.985Z,87.07
2023-02-24T20:17:12.942Z,87.39
2023-02-24T20:19:41.032Z,87.16
2023-02-24T20:22:08.974Z,87.19
2023-02-24T20:24:37.016Z,87.20
2023-02-24T20:27:05.696Z,87.70
2023-02-24T20:29:35.318Z,87.41
2023-02-24T20:32:05.084Z,87.38
2023-02-24T20:34:33.154Z,87.89
2023-02-24T20:37:01.029Z,87.79
2023-02-24T20:39:29.062Z,88.14
2023-02-24T20:41:57.045Z,88.07
2023-02-24T20:44:24.999Z,88.20
2023-02-24T20:46:53.003Z,88.23
2023-02-24T20:49:23.749Z,88.00
2023-02-24T20:51:51.806Z,88.27
2023-02-24T20:54:19.908Z,88.16
2023-02-24T20:56:48.168Z,88.39
2023-02-24T20:59:18.656Z,88.08
2023-02-24T21:01:48.317Z,88.44
2023-02-24T21:04:18.765Z,88.28
2023-02-24T21:06:49.064Z,88.56
2023-02-24T21:09:17.336Z,88.45
2023-02-24T21:11:45.298Z,88.76
2023-02-24T21:14:16.445Z,88.63
2023-02-24T21:16:46.179Z,88.88
2023-02-24T21:19:14.269Z,88.89
2023-02-24T21:21:42.242Z,89.08
2023-02-24T21:24:11.648Z,89.16
2023-02-24T21:26:39.493Z,89.12
2023-02-24T21:29:07.968Z,89.30
2023-02-24T21:31:36.037Z,88.99
2023-02-24T21:34:03.951Z,89.45
2023-02-24T21:36:32.144Z,89.31
2023-02-24T21:39:01.045Z,89.42
2023-02-24T21:41:30.227Z,89.75
2023-02-24T21:44:00.700Z,89.62
2023-02-24T21:46:29.102Z,89.56
2023-02-24T21:48:58.383Z,89.18
2023-02-24T21:51:27.853Z,89.61
2023-02-24T21:53:56.940Z,89.40
2023-02-24T21:56:27.348Z,89.33
2023-02-24T21:58:59.349Z,89.77
2023-02-24T22:01:29.213Z,89.67
2023-02-24T22:03:58.880Z,89.59
2023-02-24T22:06:30.245Z,89.59
2023-02-24T22:08:59.495Z,89.50
2023-02-24T22:11:27.350Z,89.62
2023-02-24T22:13:56.640Z,89.56
2023-02-24T22:16:26.787Z,89.22
2023-02-24T22:18:58.409Z,89.52
2023-02-24T22:21:29.321Z,89.66
2023-02-24T22:23:59.325Z,89.58
2023-02-24T22:26:27.672Z,89.82
2023-02-24T22:28:57.880Z,89.83
2023-02-24T22:31:28.393Z,89.88
2023-02-24T22:33:56.810Z,89.74
2023-02-24T22:36:27.150Z,90.00
2023-02-24T22:38:57.158Z,90.20
2023-02-24T22:41:27.175Z,90.05
2023-02-24T22:43:56.537Z,90.00
2023-02-24T22:46:27.563Z,90.38
2023-02-24T22:48:56.280Z,90.20
2023-02-24T22:51:25.017Z,90.19
2023-02-24T22:53:53.423Z,90.13
2023-02-24T22:56:24.081Z,90.28
2023-02-24T22:58:52.421Z,90.26
2023-02-24T23:01:24.591Z,90.32
2023-02-24T23:03:52.684Z,90.38
2023-02-24T23:06:23.483Z,90.38
2023-02-24T23:08:53.214Z,90.43
2023-02-24T23:11:24.993Z,90.42
2023-02-24T23:13:53.283Z,90.39
2023-02-24T23:16:25.213Z,90.63
2023-02-24T23:18:54.063Z,90.42
2023-02-24T23:21:24.940Z,90.39
2023-02-24T23:23:57.119Z,90.69
2023-02-24T23:26:30.326Z,90.79
2023-02-24T23:28:58.339Z,90.68
2023-02-24T23:31:28.382Z,90.71
2023-02-24T23:33:58.690Z,90.77
2023-02-24T23:36:27.392Z,90.62
2023-02-24T23:38:55.240Z,90.86
2023-02-24T23:41:23.212Z,90.63
2023-02-24T23:43:51.203Z,90.72
2023-02-24T23:46:19.206Z,91.07
2023-02-24T23:48:52.479Z,90.76
2023-02-24T23:51:20.649Z,90.80
2023-02-24T23:53:48.947Z,90.99
2023-02-24T23:56:19.393Z,91.17
2023-02-24T23:58:50.872Z,91.24
